Terminal Aerodrome Forecast
Issued by NWS

Home | Current Version | Previous Version | Text Only | Print | Product List | Glossary On
Versions: 1 2 3 4 5 6 7 8 9 10 11 12 13 14 15 16 17 18 19 20
000
FTUS42 KKEY 232336
TAFMTH
TAF
KMTH 232336Z 2400/2424 09011G20KT P6SM FEW023 SCT030
      TEMPO 2400/2402 BKN023 BKN030 BKN040
     FM240200 09009G18KT P6SM VCSH SCT025
     FM241800 12012G18KT P6SM FEW025=

USA.gov is the U.S. government's official web portal to all federal, state and local government web resources and services.